»·PEaware :: BREW17 KEND-KEND

BREW17 :: KEND-KEND

FLIGHT INFORMATION

Flight Status: Arrived
Operator: Unknown
More flights by this operator :: More flights under this callsign
Pilot: Michael B. (21837)
Aircraft: BEECH AIRCRAFT T-6A TEXAN
(TEX2)
More flights by this aircraft type
Origin: KEND Vance AFB
United States
Destination: KEND Vance AFB
United States
More flights between these airports :: More routes between these airports
Route: +END09 PLANNS STEREO
File this flight plan on PilotEdge
Remarks: E via WDG
Altitude:
(Current/Filed)
0ft
Speed:
(Current/Filed)
0kts
Departed: 30-Mar-20 10:11 AM
Arrived: 30-Mar-20 10:56 AM
Distance/Time
Traveled:
0nm/0:45
Distance/Time
To Go:
Arrived

Flight Plot

Page will automatically refresh every two minutes.


Map Options




Map Legend


Flown Route
Filed Route
Departure Airport
Arrival Airport
Navaid (VOR, NDB)
Fix

Horizontal Profiles

Position Reports

Time Latitude Longitude Heading Altitude Ground
Speed
30-Mar-20 10:03 36.333430 -97.910261 270 1291ft 0kts
30-Mar-20 10:04 36.333430 -97.910261 270 1291ft 0kts
30-Mar-20 10:05 36.333430 -97.910261 270 1291ft 0kts
30-Mar-20 10:06 36.333430 -97.910261 270 1291ft 0kts
30-Mar-20 10:07 36.346955 -97.910224 221 1279ft 0kts
30-Mar-20 10:08 36.346955 -97.910224 221 1279ft 0kts
30-Mar-20 10:09 36.346955 -97.910224 221 1279ft 0kts
30-Mar-20 10:10 36.346955 -97.910224 221 1279ft 0kts
30-Mar-20 10:11 36.343739 -97.911031 180 1283ft 86kts
30-Mar-20 10:12 36.297878 -97.910320 179 2128ft 213kts
30-Mar-20 10:13 36.239771 -97.901604 153 4825ft 202kts
30-Mar-20 10:14 36.249222 -97.833213 67 4991ft 240kts
30-Mar-20 10:15 36.306689 -97.848997 329 5023ft 240kts
30-Mar-20 10:16 36.367728 -97.886871 330 4861ft 244kts
30-Mar-20 10:17 36.431567 -97.910446 1 5048ft 244kts
30-Mar-20 10:17 36.488809 -97.905271 1 4947ft 253kts
30-Mar-20 10:19 36.564135 -97.897033 3 5952ft 237kts
30-Mar-20 10:20 36.620544 -97.921492 293 6017ft 239kts
30-Mar-20 10:20 36.642323 -97.985875 290 5943ft 244kts
30-Mar-20 10:22 36.669352 -98.078399 292 5958ft 240kts
30-Mar-20 10:22 36.690310 -98.144357 292 4659ft 225kts
30-Mar-20 10:23 36.705973 -98.211606 278 3918ft 200kts
30-Mar-20 10:24 36.713970 -98.281797 277 3846ft 225kts
30-Mar-20 10:26 36.727351 -98.372585 278 4508ft 240kts
30-Mar-20 10:26 36.735179 -98.439478 280 4552ft 233kts
30-Mar-20 10:27 36.763328 -98.507648 291 4919ft 223kts
30-Mar-20 10:28 36.779097 -98.586250 284 3864ft 235kts
30-Mar-20 10:29 36.789375 -98.659920 242 4001ft 211kts
30-Mar-20 10:30 36.774799 -98.660378 2 2936ft 214kts
30-Mar-20 10:31 36.774117 -98.670375 178 1497ft 115kts
30-Mar-20 10:32 36.784276 -98.657577 358 2829ft 125kts
30-Mar-20 10:33 36.770973 -98.670472 178 1503ft 116kts
30-Mar-20 10:34 36.729962 -98.668349 173 3053ft 169kts
30-Mar-20 10:35 36.691586 -98.626710 120 5002ft 235kts
30-Mar-20 10:36 36.662700 -98.564327 119 5432ft 179kts
30-Mar-20 10:37 36.637229 -98.502603 120 5240ft 211kts
30-Mar-20 10:38 36.622047 -98.436216 73 5758ft 210kts
30-Mar-20 10:39 36.604422 -98.368093 108 5746ft 219kts
30-Mar-20 10:40 36.608155 -98.294315 61 6010ft 209kts
30-Mar-20 10:41 36.623355 -98.229116 114 5948ft 205kts
30-Mar-20 10:42 36.605709 -98.167494 85 5995ft 207kts
30-Mar-20 10:43 36.609082 -98.092551 86 5926ft 232kts
30-Mar-20 10:44 36.650566 -98.041639 84 5964ft 244kts
30-Mar-20 10:45 36.654017 -97.955304 83 6045ft 250kts
30-Mar-20 10:46 36.665288 -97.868679 88 6031ft 253kts
30-Mar-20 10:47 36.641018 -97.804980 172 5095ft 255kts
30-Mar-20 10:48 36.573896 -97.800444 186 2990ft 224kts
30-Mar-20 10:49 36.524315 -97.831001 225 2505ft 218kts
30-Mar-20 10:50 36.480418 -97.884993 224 2229ft 226kts
30-Mar-20 10:51 36.424849 -97.908016 184 2261ft 225kts
30-Mar-20 10:52 36.366554 -97.908918 185 2261ft 204kts
30-Mar-20 10:53 36.351569 -97.897318 358 2110ft 133kts
30-Mar-20 10:54 36.342314 -97.910962 181 1283ft 81kts
30-Mar-20 10:55 36.333951 -97.909933 57 1291ft 0kts

Navigation Log

Ident Type
Flight plan parsing failed, navigation log unavailable